sensor_id;sensor_type;location;lat;lon;timestamp;P1;durP1;ratioP1;P2;durP2;ratioP2
59127;SDS011;44912;52.754;5.994;2022-08-02T00:00:04;10.55;;;3.75;;
59127;SDS011;44912;52.754;5.994;2022-08-02T00:02:31;9.80;;;3.92;;
59127;SDS011;44912;52.754;5.994;2022-08-02T00:04:57;7.53;;;3.40;;
59127;SDS011;44912;52.754;5.994;2022-08-02T00:07:22;8.38;;;3.78;;
59127;SDS011;44912;52.754;5.994;2022-08-02T00:09:48;10.93;;;3.85;;
59127;SDS011;44912;52.754;5.994;2022-08-02T00:12:14;10.70;;;3.78;;
59127;SDS011;44912;52.754;5.994;2022-08-02T00:14:40;9.57;;;3.75;;
59127;SDS011;44912;52.754;5.994;2022-08-02T00:17:06;9.10;;;3.70;;
59127;SDS011;44912;52.754;5.994;2022-08-02T00:19:31;10.25;;;4.00;;
59127;SDS011;44912;52.754;5.994;2022-08-02T00:21:57;9.60;;;3.88;;
59127;SDS011;44912;52.754;5.994;2022-08-02T00:24:22;7.18;;;3.53;;
59127;SDS011;44912;52.754;5.994;2022-08-02T00:26:48;10.25;;;4.13;;
59127;SDS011;44912;52.754;5.994;2022-08-02T00:29:13;7.72;;;3.30;;
59127;SDS011;44912;52.754;5.994;2022-08-02T00:31:39;10.40;;;3.53;;
59127;SDS011;44912;52.754;5.994;2022-08-02T00:34:04;8.88;;;3.72;;
59127;SDS011;44912;52.754;5.994;2022-08-02T00:36:30;9.60;;;4.00;;
59127;SDS011;44912;52.754;5.994;2022-08-02T00:38:56;9.32;;;3.97;;
59127;SDS011;44912;52.754;5.994;2022-08-02T00:41:21;9.77;;;3.83;;
59127;SDS011;44912;52.754;5.994;2022-08-02T00:43:47;9.15;;;3.50;;
59127;SDS011;44912;52.754;5.994;2022-08-02T00:46:15;10.07;;;3.55;;
59127;SDS011;44912;52.754;5.994;2022-08-02T00:48:41;9.90;;;3.63;;
59127;SDS011;44912;52.754;5.994;2022-08-02T00:51:07;11.38;;;3.47;;
59127;SDS011;44912;52.754;5.994;2022-08-02T00:53:32;9.32;;;3.50;;
59127;SDS011;44912;52.754;5.994;2022-08-02T00:55:58;9.13;;;3.55;;
59127;SDS011;44912;52.754;5.994;2022-08-02T00:58:24;8.95;;;3.58;;
59127;SDS011;44912;52.754;5.994;2022-08-02T01:00:49;11.30;;;3.38;;
59127;SDS011;44912;52.754;5.994;2022-08-02T01:03:15;10.52;;;3.50;;
59127;SDS011;44912;52.754;5.994;2022-08-02T01:05:40;9.20;;;3.40;;
59127;SDS011;44912;52.754;5.994;2022-08-02T01:08:08;11.82;;;3.40;;
59127;SDS011;44912;52.754;5.994;2022-08-02T01:10:34;10.68;;;3.30;;
59127;SDS011;44912;52.754;5.994;2022-08-02T01:12:59;9.48;;;3.35;;
59127;SDS011;44912;52.754;5.994;2022-08-02T01:15:25;12.70;;;3.92;;
59127;SDS011;44912;52.754;5.994;2022-08-02T01:18:01;7.65;;;3.20;;
59127;SDS011;44912;52.754;5.994;2022-08-02T01:23:44;11.93;;;3.70;;
59127;SDS011;44912;52.754;5.994;2022-08-02T01:26:48;10.18;;;3.40;;
59127;SDS011;44912;52.754;5.994;2022-08-02T01:29:21;8.88;;;3.20;;
59127;SDS011;44912;52.754;5.994;2022-08-02T01:32:03;9.32;;;3.40;;
59127;SDS011;44912;52.754;5.994;2022-08-02T01:34:38;8.48;;;3.28;;
59127;SDS011;44912;52.754;5.994;2022-08-02T01:39:38;9.10;;;3.17;;
59127;SDS011;44912;52.754;5.994;2022-08-02T01:42:07;10.77;;;3.20;;
59127;SDS011;44912;52.754;5.994;2022-08-02T01:44:35;9.90;;;3.30;;
59127;SDS011;44912;52.754;5.994;2022-08-02T01:47:04;9.05;;;3.00;;
59127;SDS011;44912;52.754;5.994;2022-08-02T01:49:33;11.48;;;3.60;;
59127;SDS011;44912;52.754;5.994;2022-08-02T01:52:02;10.25;;;3.10;;
59127;SDS011;44912;52.754;5.994;2022-08-02T01:54:51;10.02;;;3.53;;
59127;SDS011;44912;52.754;5.994;2022-08-02T01:57:27;10.13;;;3.30;;
59127;SDS011;44912;52.754;5.994;2022-08-02T01:59:58;8.50;;;3.40;;
59127;SDS011;44912;52.754;5.994;2022-08-02T02:02:24;6.97;;;3.30;;
59127;SDS011;44912;52.754;5.994;2022-08-02T02:04:52;10.68;;;3.92;;
59127;SDS011;44912;52.754;5.994;2022-08-02T02:07:19;9.75;;;3.30;;
59127;SDS011;44912;52.754;5.994;2022-08-02T02:09:46;9.35;;;3.33;;
59127;SDS011;44912;52.754;5.994;2022-08-02T02:12:14;9.65;;;3.20;;
59127;SDS011;44912;52.754;5.994;2022-08-02T02:14:42;11.32;;;3.22;;
59127;SDS011;44912;52.754;5.994;2022-08-02T02:17:09;11.18;;;3.78;;
59127;SDS011;44912;52.754;5.994;2022-08-02T02:19:36;10.15;;;3.10;;
59127;SDS011;44912;52.754;5.994;2022-08-02T02:22:03;8.55;;;3.25;;
59127;SDS011;44912;52.754;5.994;2022-08-02T02:24:29;11.95;;;3.70;;
59127;SDS011;44912;52.754;5.994;2022-08-02T02:26:56;8.23;;;3.22;;
59127;SDS011;44912;52.754;5.994;2022-08-02T02:29:26;7.63;;;2.95;;
59127;SDS011;44912;52.754;5.994;2022-08-02T02:31:54;9.48;;;3.53;;
59127;SDS011;44912;52.754;5.994;2022-08-02T02:34:31;11.80;;;3.72;;
59127;SDS011;44912;52.754;5.994;2022-08-02T02:37:00;11.00;;;3.63;;
59127;SDS011;44912;52.754;5.994;2022-08-02T02:39:28;14.25;;;4.35;;
59127;SDS011;44912;52.754;5.994;2022-08-02T02:41:57;11.05;;;3.22;;
59127;SDS011;44912;52.754;5.994;2022-08-02T02:44:27;13.32;;;3.55;;
59127;SDS011;44912;52.754;5.994;2022-08-02T02:46:54;8.27;;;3.03;;
59127;SDS011;44912;52.754;5.994;2022-08-02T02:49:22;9.95;;;3.33;;
59127;SDS011;44912;52.754;5.994;2022-08-02T02:51:49;12.27;;;4.22;;
59127;SDS011;44912;52.754;5.994;2022-08-02T02:54:15;9.13;;;3.63;;
59127;SDS011;44912;52.754;5.994;2022-08-02T02:56:43;12.68;;;3.60;;
59127;SDS011;44912;52.754;5.994;2022-08-02T02:59:11;10.23;;;3.50;;
59127;SDS011;44912;52.754;5.994;2022-08-02T03:01:38;10.52;;;3.83;;
59127;SDS011;44912;52.754;5.994;2022-08-02T03:04:06;11.93;;;3.45;;
59127;SDS011;44912;52.754;5.994;2022-08-02T03:06:37;12.35;;;3.65;;
59127;SDS011;44912;52.754;5.994;2022-08-02T03:09:04;13.02;;;4.35;;
59127;SDS011;44912;52.754;5.994;2022-08-02T03:11:30;9.43;;;4.20;;
59127;SDS011;44912;52.754;5.994;2022-08-02T03:13:59;9.57;;;3.60;;
59127;SDS011;44912;52.754;5.994;2022-08-02T03:16:26;10.02;;;3.92;;
59127;SDS011;44912;52.754;5.994;2022-08-02T03:18:52;8.25;;;3.80;;
59127;SDS011;44912;52.754;5.994;2022-08-02T03:21:19;9.57;;;4.20;;
59127;SDS011;44912;52.754;5.994;2022-08-02T03:23:45;10.27;;;4.30;;
59127;SDS011;44912;52.754;5.994;2022-08-02T03:26:11;9.48;;;4.00;;
59127;SDS011;44912;52.754;5.994;2022-08-02T03:28:37;9.38;;;4.30;;
59127;SDS011;44912;52.754;5.994;2022-08-02T03:31:03;11.93;;;4.45;;
59127;SDS011;44912;52.754;5.994;2022-08-02T03:33:29;10.25;;;3.95;;
59127;SDS011;44912;52.754;5.994;2022-08-02T03:35:57;12.75;;;4.40;;
59127;SDS011;44912;52.754;5.994;2022-08-02T03:38:25;9.85;;;4.20;;
59127;SDS011;44912;52.754;5.994;2022-08-02T03:40:51;9.85;;;4.20;;
59127;SDS011;44912;52.754;5.994;2022-08-02T03:43:18;9.85;;;4.45;;
59127;SDS011;44912;52.754;5.994;2022-08-02T03:45:45;8.25;;;4.20;;
59127;SDS011;44912;52.754;5.994;2022-08-02T03:48:15;11.43;;;4.10;;
59127;SDS011;44912;52.754;5.994;2022-08-02T03:50:42;10.00;;;4.10;;
59127;SDS011;44912;52.754;5.994;2022-08-02T03:53:10;9.15;;;4.00;;
59127;SDS011;44912;52.754;5.994;2022-08-02T03:55:37;10.13;;;3.80;;
59127;SDS011;44912;52.754;5.994;2022-08-02T03:58:04;7.55;;;3.30;;
59127;SDS011;44912;52.754;5.994;2022-08-02T04:00:30;10.10;;;3.75;;
59127;SDS011;44912;52.754;5.994;2022-08-02T04:02:56;9.95;;;3.40;;
59127;SDS011;44912;52.754;5.994;2022-08-02T04:05:21;11.35;;;3.67;;
59127;SDS011;44912;52.754;5.994;2022-08-02T04:07:48;9.43;;;3.42;;
59127;SDS011;44912;52.754;5.994;2022-08-02T04:10:15;13.10;;;3.75;;
59127;SDS011;44912;52.754;5.994;2022-08-02T04:12:41;9.35;;;3.67;;
59127;SDS011;44912;52.754;5.994;2022-08-02T04:15:06;10.95;;;3.80;;
59127;SDS011;44912;52.754;5.994;2022-08-02T04:17:35;9.25;;;4.10;;
59127;SDS011;44912;52.754;5.994;2022-08-02T04:20:06;10.27;;;4.13;;
59127;SDS011;44912;52.754;5.994;2022-08-02T04:22:38;8.82;;;3.58;;
59127;SDS011;44912;52.754;5.994;2022-08-02T04:25:09;8.82;;;3.63;;
59127;SDS011;44912;52.754;5.994;2022-08-02T04:27:36;9.55;;;3.35;;
59127;SDS011;44912;52.754;5.994;2022-08-02T04:30:03;9.98;;;3.67;;
59127;SDS011;44912;52.754;5.994;2022-08-02T04:32:30;8.70;;;3.60;;
59127;SDS011;44912;52.754;5.994;2022-08-02T04:34:56;8.15;;;3.55;;
59127;SDS011;44912;52.754;5.994;2022-08-02T04:37:22;10.45;;;3.95;;
59127;SDS011;44912;52.754;5.994;2022-08-02T04:39:49;8.57;;;3.35;;
59127;SDS011;44912;52.754;5.994;2022-08-02T04:42:21;11.80;;;4.53;;
59127;SDS011;44912;52.754;5.994;2022-08-02T04:44:49;8.88;;;3.70;;
59127;SDS011;44912;52.754;5.994;2022-08-02T04:47:15;9.25;;;3.65;;
59127;SDS011;44912;52.754;5.994;2022-08-02T04:49:41;9.63;;;4.03;;
59127;SDS011;44912;52.754;5.994;2022-08-02T04:52:06;8.73;;;4.00;;
59127;SDS011;44912;52.754;5.994;2022-08-02T04:54:32;11.23;;;4.10;;
59127;SDS011;44912;52.754;5.994;2022-08-02T04:56:58;9.68;;;4.10;;
59127;SDS011;44912;52.754;5.994;2022-08-02T04:59:23;11.10;;;4.20;;
59127;SDS011;44912;52.754;5.994;2022-08-02T05:01:49;9.88;;;3.95;;
59127;SDS011;44912;52.754;5.994;2022-08-02T05:04:15;10.45;;;3.97;;
59127;SDS011;44912;52.754;5.994;2022-08-02T05:06:40;8.85;;;4.10;;
59127;SDS011;44912;52.754;5.994;2022-08-02T05:09:06;10.43;;;3.70;;
59127;SDS011;44912;52.754;5.994;2022-08-02T05:11:31;8.13;;;4.22;;
59127;SDS011;44912;52.754;5.994;2022-08-02T05:13:57;11.30;;;4.05;;
59127;SDS011;44912;52.754;5.994;2022-08-02T05:16:22;10.15;;;4.00;;
59127;SDS011;44912;52.754;5.994;2022-08-02T05:18:50;9.77;;;3.80;;
59127;SDS011;44912;52.754;5.994;2022-08-02T05:21:15;10.57;;;3.90;;
59127;SDS011;44912;52.754;5.994;2022-08-02T05:23:41;11.07;;;4.10;;
59127;SDS011;44912;52.754;5.994;2022-08-02T05:26:07;12.45;;;3.90;;
59127;SDS011;44912;52.754;5.994;2022-08-02T05:28:32;10.25;;;3.75;;
59127;SDS011;44912;52.754;5.994;2022-08-02T05:30:58;11.00;;;4.43;;
59127;SDS011;44912;52.754;5.994;2022-08-02T05:33:24;9.68;;;4.22;;
59127;SDS011;44912;52.754;5.994;2022-08-02T05:35:49;10.13;;;4.18;;
59127;SDS011;44912;52.754;5.994;2022-08-02T05:38:15;10.68;;;4.30;;
59127;SDS011;44912;52.754;5.994;2022-08-02T05:40:41;8.27;;;3.70;;
59127;SDS011;44912;52.754;5.994;2022-08-02T05:43:10;12.00;;;4.32;;
59127;SDS011;44912;52.754;5.994;2022-08-02T05:45:39;10.30;;;3.97;;
59127;SDS011;44912;52.754;5.994;2022-08-02T05:48:05;8.60;;;3.85;;
59127;SDS011;44912;52.754;5.994;2022-08-02T05:50:32;9.65;;;3.95;;
59127;SDS011;44912;52.754;5.994;2022-08-02T05:53:02;12.98;;;4.00;;
59127;SDS011;44912;52.754;5.994;2022-08-02T05:55:34;11.75;;;4.03;;
59127;SDS011;44912;52.754;5.994;2022-08-02T05:58:15;9.63;;;4.22;;
59127;SDS011;44912;52.754;5.994;2022-08-02T06:00:47;10.85;;;4.00;;
59127;SDS011;44912;52.754;5.994;2022-08-02T06:03:23;10.35;;;3.92;;
59127;SDS011;44912;52.754;5.994;2022-08-02T06:05:52;11.90;;;4.13;;
59127;SDS011;44912;52.754;5.994;2022-08-02T06:08:22;11.13;;;4.40;;
59127;SDS011;44912;52.754;5.994;2022-08-02T06:10:52;12.80;;;4.13;;
59127;SDS011;44912;52.754;5.994;2022-08-02T06:13:24;8.55;;;3.58;;
59127;SDS011;44912;52.754;5.994;2022-08-02T06:15:51;12.32;;;4.38;;
59127;SDS011;44912;52.754;5.994;2022-08-02T06:18:17;10.30;;;3.70;;
59127;SDS011;44912;52.754;5.994;2022-08-02T06:20:43;10.05;;;3.80;;
59127;SDS011;44912;52.754;5.994;2022-08-02T06:23:14;10.60;;;3.75;;
59127;SDS011;44912;52.754;5.994;2022-08-02T06:25:41;11.57;;;4.13;;
59127;SDS011;44912;52.754;5.994;2022-08-02T06:28:10;9.05;;;3.83;;
59127;SDS011;44912;52.754;5.994;2022-08-02T06:30:38;10.05;;;4.07;;
59127;SDS011;44912;52.754;5.994;2022-08-02T06:33:04;10.98;;;3.92;;
59127;SDS011;44912;52.754;5.994;2022-08-02T06:35:33;9.65;;;4.20;;
59127;SDS011;44912;52.754;5.994;2022-08-02T06:38:08;9.82;;;4.07;;
59127;SDS011;44912;52.754;5.994;2022-08-02T06:40:43;10.82;;;4.18;;
59127;SDS011;44912;52.754;5.994;2022-08-02T06:43:24;8.00;;;3.47;;
59127;SDS011;44912;52.754;5.994;2022-08-02T06:45:59;8.98;;;3.75;;
59127;SDS011;44912;52.754;5.994;2022-08-02T06:48:25;9.57;;;3.85;;
59127;SDS011;44912;52.754;5.994;2022-08-02T06:50:51;13.82;;;4.13;;
59127;SDS011;44912;52.754;5.994;2022-08-02T06:53:16;9.75;;;3.50;;
59127;SDS011;44912;52.754;5.994;2022-08-02T06:55:42;7.78;;;3.70;;
59127;SDS011;44912;52.754;5.994;2022-08-02T06:58:07;8.80;;;4.00;;
59127;SDS011;44912;52.754;5.994;2022-08-02T07:00:33;9.55;;;3.40;;
59127;SDS011;44912;52.754;5.994;2022-08-02T07:02:58;9.70;;;3.13;;
59127;SDS011;44912;52.754;5.994;2022-08-02T07:05:24;7.80;;;3.35;;
59127;SDS011;44912;52.754;5.994;2022-08-02T07:07:50;11.02;;;3.47;;
59127;SDS011;44912;52.754;5.994;2022-08-02T07:10:15;8.27;;;3.30;;
59127;SDS011;44912;52.754;5.994;2022-08-02T07:12:41;10.38;;;3.20;;
59127;SDS011;44912;52.754;5.994;2022-08-02T07:15:07;7.15;;;3.00;;
59127;SDS011;44912;52.754;5.994;2022-08-02T07:17:34;11.27;;;3.25;;
59127;SDS011;44912;52.754;5.994;2022-08-02T07:20:00;8.40;;;3.40;;
59127;SDS011;44912;52.754;5.994;2022-08-02T07:22:26;9.32;;;3.20;;
59127;SDS011;44912;52.754;5.994;2022-08-02T07:24:53;7.72;;;3.00;;
59127;SDS011;44912;52.754;5.994;2022-08-02T07:27:23;8.77;;;2.88;;
59127;SDS011;44912;52.754;5.994;2022-08-02T07:29:49;5.35;;;2.92;;
59127;SDS011;44912;52.754;5.994;2022-08-02T07:32:16;8.48;;;3.25;;
59127;SDS011;44912;52.754;5.994;2022-08-02T07:34:43;11.88;;;3.20;;
59127;SDS011;44912;52.754;5.994;2022-08-02T07:37:09;9.52;;;2.70;;
59127;SDS011;44912;52.754;5.994;2022-08-02T07:39:35;8.32;;;3.03;;
59127;SDS011;44912;52.754;5.994;2022-08-02T07:42:01;8.10;;;3.28;;
59127;SDS011;44912;52.754;5.994;2022-08-02T07:44:26;5.38;;;2.83;;
59127;SDS011;44912;52.754;5.994;2022-08-02T07:46:56;8.65;;;2.95;;
59127;SDS011;44912;52.754;5.994;2022-08-02T07:49:22;6.90;;;2.80;;
59127;SDS011;44912;52.754;5.994;2022-08-02T07:51:47;6.95;;;2.90;;
59127;SDS011;44912;52.754;5.994;2022-08-02T07:54:13;7.18;;;2.88;;
59127;SDS011;44912;52.754;5.994;2022-08-02T07:56:38;10.35;;;3.05;;
59127;SDS011;44912;52.754;5.994;2022-08-02T07:59:04;6.43;;;3.15;;
59127;SDS011;44912;52.754;5.994;2022-08-02T08:01:30;9.27;;;3.17;;
59127;SDS011;44912;52.754;5.994;2022-08-02T08:03:55;10.00;;;3.00;;
59127;SDS011;44912;52.754;5.994;2022-08-02T08:06:21;8.25;;;3.08;;
59127;SDS011;44912;52.754;5.994;2022-08-02T08:08:46;7.47;;;3.08;;
59127;SDS011;44912;52.754;5.994;2022-08-02T08:11:12;10.50;;;3.22;;
59127;SDS011;44912;52.754;5.994;2022-08-02T08:13:38;6.97;;;3.17;;
59127;SDS011;44912;52.754;5.994;2022-08-02T08:16:03;8.60;;;3.35;;
59127;SDS011;44912;52.754;5.994;2022-08-02T08:18:30;8.63;;;3.30;;
59127;SDS011;44912;52.754;5.994;2022-08-02T08:20:56;8.23;;;3.30;;
59127;SDS011;44912;52.754;5.994;2022-08-02T08:23:22;10.05;;;3.58;;
59127;SDS011;44912;52.754;5.994;2022-08-02T08:25:48;11.05;;;3.33;;
59127;SDS011;44912;52.754;5.994;2022-08-02T08:28:14;7.82;;;3.03;;
59127;SDS011;44912;52.754;5.994;2022-08-02T08:30:39;7.60;;;3.08;;
59127;SDS011;44912;52.754;5.994;2022-08-02T08:33:06;8.15;;;3.17;;
59127;SDS011;44912;52.754;5.994;2022-08-02T08:35:32;9.38;;;3.25;;
59127;SDS011;44912;52.754;5.994;2022-08-02T08:37:58;8.40;;;3.08;;
59127;SDS011;44912;52.754;5.994;2022-08-02T08:40:24;8.15;;;3.13;;
59127;SDS011;44912;52.754;5.994;2022-08-02T08:42:49;8.98;;;2.92;;
59127;SDS011;44912;52.754;5.994;2022-08-02T08:45:15;8.68;;;2.90;;
59127;SDS011;44912;52.754;5.994;2022-08-02T08:47:42;8.73;;;3.03;;
59127;SDS011;44912;52.754;5.994;2022-08-02T08:50:15;12.23;;;3.03;;
59127;SDS011;44912;52.754;5.994;2022-08-02T08:52:47;9.18;;;2.75;;
59127;SDS011;44912;52.754;5.994;2022-08-02T08:55:21;7.43;;;2.25;;
59127;SDS011;44912;52.754;5.994;2022-08-02T08:57:50;5.95;;;2.30;;
59127;SDS011;44912;52.754;5.994;2022-08-02T09:00:18;6.75;;;2.20;;
59127;SDS011;44912;52.754;5.994;2022-08-02T09:02:44;5.45;;;2.78;;
59127;SDS011;44912;52.754;5.994;2022-08-02T09:05:12;6.05;;;2.47;;
59127;SDS011;44912;52.754;5.994;2022-08-02T09:07:39;7.70;;;2.40;;
59127;SDS011;44912;52.754;5.994;2022-08-02T09:13:04;6.35;;;2.30;;
59127;SDS011;44912;52.754;5.994;2022-08-02T09:15:44;7.82;;;2.83;;
59127;SDS011;44912;52.754;5.994;2022-08-02T09:23:21;7.53;;;3.35;;
59127;SDS011;44912;52.754;5.994;2022-08-02T09:25:57;6.55;;;2.67;;
59127;SDS011;44912;52.754;5.994;2022-08-02T09:28:27;8.27;;;3.00;;
59127;SDS011;44912;52.754;5.994;2022-08-02T09:31:02;8.18;;;3.50;;
59127;SDS011;44912;52.754;5.994;2022-08-02T09:33:29;8.32;;;3.58;;
59127;SDS011;44912;52.754;5.994;2022-08-02T09:36:05;7.32;;;3.30;;
59127;SDS011;44912;52.754;5.994;2022-08-02T09:38:32;7.43;;;3.22;;
59127;SDS011;44912;52.754;5.994;2022-08-02T09:40:59;6.82;;;3.33;;
59127;SDS011;44912;52.754;5.994;2022-08-02T09:43:39;7.72;;;3.80;;
59127;SDS011;44912;52.754;5.994;2022-08-02T09:46:09;6.30;;;2.90;;
59127;SDS011;44912;52.754;5.994;2022-08-02T09:48:57;9.43;;;3.40;;
59127;SDS011;44912;52.754;5.994;2022-08-02T09:51:24;7.57;;;3.47;;
59127;SDS011;44912;52.754;5.994;2022-08-02T09:53:58;7.93;;;3.10;;
59127;SDS011;44912;52.754;5.994;2022-08-02T09:56:25;7.30;;;4.10;;
59127;SDS011;44912;52.754;5.994;2022-08-02T09:58:53;10.20;;;4.65;;
59127;SDS011;44912;52.754;5.994;2022-08-02T10:01:28;7.47;;;4.50;;
59127;SDS011;44912;52.754;5.994;2022-08-02T10:03:59;8.00;;;4.97;;
59127;SDS011;44912;52.754;5.994;2022-08-02T10:06:30;10.05;;;5.60;;
59127;SDS011;44912;52.754;5.994;2022-08-02T10:08:56;11.05;;;6.05;;
59127;SDS011;44912;52.754;5.994;2022-08-02T10:11:22;8.40;;;5.05;;
59127;SDS011;44912;52.754;5.994;2022-08-02T10:13:49;9.65;;;5.05;;
59127;SDS011;44912;52.754;5.994;2022-08-02T10:16:16;10.20;;;4.85;;
59127;SDS011;44912;52.754;5.994;2022-08-02T10:18:45;8.60;;;3.90;;
59127;SDS011;44912;52.754;5.994;2022-08-02T10:21:15;6.45;;;4.00;;
59127;SDS011;44912;52.754;5.994;2022-08-02T10:23:47;9.43;;;4.72;;
59127;SDS011;44912;52.754;5.994;2022-08-02T10:26:17;10.75;;;4.82;;
59127;SDS011;44912;52.754;5.994;2022-08-02T10:28:45;9.75;;;4.55;;
59127;SDS011;44912;52.754;5.994;2022-08-02T10:31:13;9.13;;;5.05;;
59127;SDS011;44912;52.754;5.994;2022-08-02T10:33:44;9.70;;;5.70;;
59127;SDS011;44912;52.754;5.994;2022-08-02T10:36:13;8.68;;;5.10;;
59127;SDS011;44912;52.754;5.994;2022-08-02T10:38:39;10.13;;;6.13;;
59127;SDS011;44912;52.754;5.994;2022-08-02T10:41:05;9.52;;;6.00;;
59127;SDS011;44912;52.754;5.994;2022-08-02T10:57:00;13.43;;;7.90;;
59127;SDS011;44912;52.754;5.994;2022-08-02T10:59:33;13.07;;;8.02;;
59127;SDS011;44912;52.754;5.994;2022-08-02T11:07:19;13.25;;;8.50;;
59127;SDS011;44912;52.754;5.994;2022-08-02T11:09:55;11.80;;;7.55;;
59127;SDS011;44912;52.754;5.994;2022-08-02T11:12:23;11.38;;;7.40;;
59127;SDS011;44912;52.754;5.994;2022-08-02T11:15:02;15.02;;;8.00;;
59127;SDS011;44912;52.754;5.994;2022-08-02T11:20:18;11.35;;;7.38;;
59127;SDS011;44912;52.754;5.994;2022-08-02T11:22:46;10.32;;;6.88;;
59127;SDS011;44912;52.754;5.994;2022-08-02T11:27:48;9.07;;;6.03;;
59127;SDS011;44912;52.754;5.994;2022-08-02T11:30:14;8.35;;;5.28;;
59127;SDS011;44912;52.754;5.994;2022-08-02T11:32:40;8.93;;;4.65;;
59127;SDS011;44912;52.754;5.994;2022-08-02T11:35:06;8.68;;;4.45;;
59127;SDS011;44912;52.754;5.994;2022-08-02T11:37:33;8.95;;;4.90;;
59127;SDS011;44912;52.754;5.994;2022-08-02T11:40:01;8.80;;;5.38;;
59127;SDS011;44912;52.754;5.994;2022-08-02T11:42:38;9.02;;;5.20;;
59127;SDS011;44912;52.754;5.994;2022-08-02T11:45:06;8.60;;;4.53;;
59127;SDS011;44912;52.754;5.994;2022-08-02T11:47:33;8.80;;;4.18;;
59127;SDS011;44912;52.754;5.994;2022-08-02T11:50:13;9.10;;;4.15;;
59127;SDS011;44912;52.754;5.994;2022-08-02T11:52:39;7.30;;;4.45;;
59127;SDS011;44912;52.754;5.994;2022-08-02T11:55:05;7.90;;;3.72;;
59127;SDS011;44912;52.754;5.994;2022-08-02T11:57:32;7.43;;;3.75;;
59127;SDS011;44912;52.754;5.994;2022-08-02T11:59:58;8.73;;;4.40;;
59127;SDS011;44912;52.754;5.994;2022-08-02T12:02:27;9.52;;;5.38;;
59127;SDS011;44912;52.754;5.994;2022-08-02T12:05:03;9.35;;;4.95;;
59127;SDS011;44912;52.754;5.994;2022-08-02T12:07:36;9.10;;;5.03;;
59127;SDS011;44912;52.754;5.994;2022-08-02T12:10:04;11.85;;;5.53;;
59127;SDS011;44912;52.754;5.994;2022-08-02T12:12:45;8.93;;;4.90;;
59127;SDS011;44912;52.754;5.994;2022-08-02T12:17:55;9.20;;;6.43;;
59127;SDS011;44912;52.754;5.994;2022-08-02T12:20:39;9.10;;;6.18;;
59127;SDS011;44912;52.754;5.994;2022-08-02T12:23:05;9.60;;;6.25;;
59127;SDS011;44912;52.754;5.994;2022-08-02T12:25:30;9.85;;;6.68;;
59127;SDS011;44912;52.754;5.994;2022-08-02T12:28:15;10.10;;;6.45;;
59127;SDS011;44912;52.754;5.994;2022-08-02T12:30:49;13.40;;;6.80;;
59127;SDS011;44912;52.754;5.994;2022-08-02T12:33:16;9.77;;;6.10;;
59127;SDS011;44912;52.754;5.994;2022-08-02T12:35:42;9.75;;;6.80;;
59127;SDS011;44912;52.754;5.994;2022-08-02T12:38:08;12.23;;;6.43;;
59127;SDS011;44912;52.754;5.994;2022-08-02T12:40:35;10.48;;;6.07;;
59127;SDS011;44912;52.754;5.994;2022-08-02T12:43:01;10.95;;;5.78;;
59127;SDS011;44912;52.754;5.994;2022-08-02T12:45:30;9.18;;;5.65;;
59127;SDS011;44912;52.754;5.994;2022-08-02T12:48:08;9.43;;;5.60;;
59127;SDS011;44912;52.754;5.994;2022-08-02T12:50:34;9.65;;;6.47;;
59127;SDS011;44912;52.754;5.994;2022-08-02T12:53:09;13.32;;;7.25;;
59127;SDS011;44912;52.754;5.994;2022-08-02T12:55:37;10.23;;;6.82;;
59127;SDS011;44912;52.754;5.994;2022-08-02T12:58:15;10.90;;;7.18;;
59127;SDS011;44912;52.754;5.994;2022-08-02T13:00:41;11.00;;;6.82;;
59127;SDS011;44912;52.754;5.994;2022-08-02T13:03:08;9.38;;;6.68;;
59127;SDS011;44912;52.754;5.994;2022-08-02T13:05:34;8.80;;;5.53;;
59127;SDS011;44912;52.754;5.994;2022-08-02T13:08:01;9.73;;;5.90;;
59127;SDS011;44912;52.754;5.994;2022-08-02T13:10:28;10.20;;;6.03;;
59127;SDS011;44912;52.754;5.994;2022-08-02T13:12:54;8.50;;;5.43;;
59127;SDS011;44912;52.754;5.994;2022-08-02T13:15:20;8.60;;;5.10;;
59127;SDS011;44912;52.754;5.994;2022-08-02T13:17:46;9.50;;;5.25;;
59127;SDS011;44912;52.754;5.994;2022-08-02T13:20:12;8.82;;;4.43;;
59127;SDS011;44912;52.754;5.994;2022-08-02T13:22:41;9.27;;;5.03;;
59127;SDS011;44912;52.754;5.994;2022-08-02T13:25:07;7.97;;;5.07;;
59127;SDS011;44912;52.754;5.994;2022-08-02T13:27:33;9.95;;;5.30;;
59127;SDS011;44912;52.754;5.994;2022-08-02T13:30:00;8.73;;;4.88;;
59127;SDS011;44912;52.754;5.994;2022-08-02T13:32:26;8.82;;;5.40;;
59127;SDS011;44912;52.754;5.994;2022-08-02T13:34:53;8.27;;;4.72;;
59127;SDS011;44912;52.754;5.994;2022-08-02T13:37:19;8.98;;;4.55;;
59127;SDS011;44912;52.754;5.994;2022-08-02T13:39:45;7.07;;;4.50;;
59127;SDS011;44912;52.754;5.994;2022-08-02T13:42:11;8.32;;;4.72;;
59127;SDS011;44912;52.754;5.994;2022-08-02T13:44:36;8.02;;;4.88;;
59127;SDS011;44912;52.754;5.994;2022-08-02T13:47:02;7.85;;;4.85;;
59127;SDS011;44912;52.754;5.994;2022-08-02T13:49:28;9.27;;;4.68;;
59127;SDS011;44912;52.754;5.994;2022-08-02T13:51:54;7.95;;;4.22;;
59127;SDS011;44912;52.754;5.994;2022-08-02T13:54:20;7.13;;;3.63;;
59127;SDS011;44912;52.754;5.994;2022-08-02T13:56:45;6.10;;;3.53;;
59127;SDS011;44912;52.754;5.994;2022-08-02T13:59:11;7.93;;;3.13;;
59127;SDS011;44912;52.754;5.994;2022-08-02T14:01:37;7.32;;;3.53;;
59127;SDS011;44912;52.754;5.994;2022-08-02T14:04:03;8.40;;;4.80;;
59127;SDS011;44912;52.754;5.994;2022-08-02T14:06:29;7.03;;;3.75;;
59127;SDS011;44912;52.754;5.994;2022-08-02T14:08:54;6.25;;;3.53;;
59127;SDS011;44912;52.754;5.994;2022-08-02T14:11:20;7.80;;;3.85;;
59127;SDS011;44912;52.754;5.994;2022-08-02T14:13:46;6.20;;;3.78;;
59127;SDS011;44912;52.754;5.994;2022-08-02T14:16:11;7.65;;;3.83;;
59127;SDS011;44912;52.754;5.994;2022-08-02T14:18:37;7.40;;;3.60;;
59127;SDS011;44912;52.754;5.994;2022-08-02T14:21:02;8.27;;;4.68;;
59127;SDS011;44912;52.754;5.994;2022-08-02T14:23:28;9.23;;;3.72;;
59127;SDS011;44912;52.754;5.994;2022-08-02T14:25:56;8.95;;;3.42;;
59127;SDS011;44912;52.754;5.994;2022-08-02T14:28:21;7.28;;;3.33;;
59127;SDS011;44912;52.754;5.994;2022-08-02T14:30:47;8.00;;;3.30;;
59127;SDS011;44912;52.754;5.994;2022-08-02T14:33:13;6.13;;;2.63;;
59127;SDS011;44912;52.754;5.994;2022-08-02T14:35:38;5.78;;;3.10;;
59127;SDS011;44912;52.754;5.994;2022-08-02T14:38:04;7.85;;;3.88;;
59127;SDS011;44912;52.754;5.994;2022-08-02T14:40:30;9.50;;;4.10;;
59127;SDS011;44912;52.754;5.994;2022-08-02T14:42:56;9.25;;;4.50;;
59127;SDS011;44912;52.754;5.994;2022-08-02T14:45:21;8.32;;;3.88;;
59127;SDS011;44912;52.754;5.994;2022-08-02T14:47:48;9.05;;;3.75;;
59127;SDS011;44912;52.754;5.994;2022-08-02T14:50:14;8.25;;;4.18;;
59127;SDS011;44912;52.754;5.994;2022-08-02T14:52:42;10.45;;;4.70;;
59127;SDS011;44912;52.754;5.994;2022-08-02T14:55:08;10.43;;;6.75;;
59127;SDS011;44912;52.754;5.994;2022-08-02T14:57:34;8.85;;;5.25;;
59127;SDS011;44912;52.754;5.994;2022-08-02T14:59:59;8.15;;;5.38;;
59127;SDS011;44912;52.754;5.994;2022-08-02T15:02:28;9.15;;;5.15;;
59127;SDS011;44912;52.754;5.994;2022-08-02T15:04:54;9.70;;;5.15;;
59127;SDS011;44912;52.754;5.994;2022-08-02T15:07:19;10.43;;;5.32;;
59127;SDS011;44912;52.754;5.994;2022-08-02T15:09:45;7.07;;;5.00;;
59127;SDS011;44912;52.754;5.994;2022-08-02T15:12:11;9.50;;;4.57;;
59127;SDS011;44912;52.754;5.994;2022-08-02T15:14:37;7.82;;;4.45;;
59127;SDS011;44912;52.754;5.994;2022-08-02T15:17:03;7.38;;;3.90;;
59127;SDS011;44912;52.754;5.994;2022-08-02T15:19:30;8.38;;;4.18;;
59127;SDS011;44912;52.754;5.994;2022-08-02T15:21:56;7.97;;;4.00;;
59127;SDS011;44912;52.754;5.994;2022-08-02T15:24:22;6.38;;;2.63;;
59127;SDS011;44912;52.754;5.994;2022-08-02T15:26:47;9.23;;;4.50;;